Time,TemperatureF,DewpointF,PressureIn,WindDirection,WindDirectionDegrees,WindSpeedMPH,WindSpeedGustMPH,Humidity,HourlyPrecipIn,Conditions,Clouds,dailyrainin,SoftwareType,DateUTC
2013-03-20 00:03:00,28.0,17.0,29.98,WNW,290,4.0,10.0,62,0.00,,,0.00,,2013-03-20 04:03:00,
2013-03-20 00:12:00,28.0,17.0,29.98,WNW,290,4.0,10.0,62,0.00,,,0.00,,2013-03-20 04:12:00,
2013-03-20 00:23:00,28.0,17.0,29.98,West,270,3.0,8.0,62,0.00,,,0.00,,2013-03-20 04:23:00,
2013-03-20 00:32:00,27.0,16.0,29.98,WSW,250,2.0,6.0,62,0.00,,,0.00,,2013-03-20 04:32:00,
2013-03-20 00:43:00,27.0,16.0,29.98,WSW,250,2.0,6.0,62,0.00,,,0.00,,2013-03-20 04:43:00,
2013-03-20 00:53:00,27.0,16.0,29.98,WNW,290,2.0,5.0,63,0.00,,,0.00,,2013-03-20 04:53:00,
2013-03-20 01:03:00,27.0,16.0,29.98,WNW,290,2.0,5.0,63,0.00,,,0.00,,2013-03-20 05:03:00,
2013-03-20 01:13:00,27.0,16.0,29.97,West,263,2.0,6.0,64,0.00,,,0.00,,2013-03-20 05:13:00,
2013-03-20 01:23:00,27.0,16.0,29.97,West,263,2.0,6.0,64,0.00,,,0.00,,2013-03-20 05:23:00,
2013-03-20 01:32:00,26.0,16.0,29.97,SW,226,1.0,6.0,66,0.00,,,0.00,,2013-03-20 05:32:00,
2013-03-20 01:43:00,26.0,16.0,29.97,SW,226,1.0,6.0,66,0.00,,,0.00,,2013-03-20 05:43:00,
2013-03-20 01:53:00,26.0,17.0,29.97,WSW,240,2.0,7.0,67,0.00,,,0.00,,2013-03-20 05:53:00,
2013-03-20 02:03:00,26.0,17.0,29.97,West,269,4.0,7.0,67,0.00,,,0.00,,2013-03-20 06:03:00,
2013-03-20 02:13:00,26.0,17.0,29.97,West,269,4.0,7.0,67,0.00,,,0.00,,2013-03-20 06:13:00,
2013-03-20 02:22:00,26.0,17.0,29.97,West,276,2.0,6.0,67,0.00,,,0.00,,2013-03-20 06:22:00,
2013-03-20 02:32:00,26.0,17.0,29.97,West,267,3.0,10.0,68,0.00,,,0.00,,2013-03-20 06:32:00,
2013-03-20 02:42:00,26.0,17.0,29.97,West,267,3.0,10.0,68,0.00,,,0.00,,2013-03-20 06:42:00,
2013-03-20 02:53:00,26.0,17.0,29.98,WSW,257,3.0,8.0,68,0.00,,,0.00,,2013-03-20 06:53:00,
2013-03-20 03:02:00,26.0,17.0,29.97,WSW,252,1.0,4.0,69,0.00,,,0.00,,2013-03-20 07:02:00,
2013-03-20 03:12:00,26.0,17.0,29.97,WSW,252,1.0,4.0,69,0.00,,,0.00,,2013-03-20 07:12:00,
2013-03-20 03:22:00,26.0,17.0,29.97,West,262,3.0,10.0,69,0.00,,,0.00,,2013-03-20 07:22:00,
2013-03-20 03:32:00,26.0,17.0,29.97,WSW,255,4.0,9.0,68,0.00,,,0.00,,2013-03-20 07:32:00,
2013-03-20 03:42:00,26.0,17.0,29.97,WSW,255,4.0,9.0,68,0.00,,,0.00,,2013-03-20 07:42:00,
2013-03-20 03:52:00,26.0,17.0,29.97,West,274,3.0,9.0,68,0.00,,,0.00,,2013-03-20 07:52:00,
2013-03-20 04:02:00,26.0,17.0,29.97,WNW,290,5.0,12.0,68,0.00,,,0.00,,2013-03-20 08:02:00,
2013-03-20 04:12:00,26.0,17.0,29.97,WNW,290,5.0,12.0,68,0.00,,,0.00,,2013-03-20 08:12:00,
2013-03-20 04:22:00,26.0,17.0,29.97,WNW,290,5.0,12.0,68,0.00,,,0.00,,2013-03-20 08:22:00,
2013-03-20 04:32:00,25.0,17.0,29.96,WNW,287,2.0,5.0,70,0.00,,,0.00,,2013-03-20 08:32:00,
2013-03-20 04:42:00,25.0,17.0,29.96,WNW,287,2.0,5.0,70,0.00,,,0.00,,2013-03-20 08:42:00,
2013-03-20 04:52:00,25.0,17.0,29.96,WSW,250,2.0,7.0,70,0.00,,,0.00,,2013-03-20 08:52:00,
2013-03-20 05:02:00,25.0,16.0,29.96,WNW,287,3.0,8.0,69,0.00,,,0.00,,2013-03-20 09:02:00,
2013-03-20 05:12:00,25.0,16.0,29.96,WNW,287,3.0,8.0,69,0.00,,,0.00,,2013-03-20 09:12:00,
2013-03-20 05:22:00,25.0,17.0,29.95,West,259,1.0,4.0,70,0.00,,,0.00,,2013-03-20 09:22:00,
2013-03-20 05:33:00,24.0,16.0,29.93,West,273,0.0,1.0,72,0.00,,,0.00,,2013-03-20 09:33:00,
2013-03-20 05:43:00,24.0,16.0,29.93,West,273,0.0,1.0,72,0.00,,,0.00,,2013-03-20 09:43:00,
2013-03-20 05:53:00,23.0,16.0,29.96,West,259,0.0,2.0,74,0.00,,,0.00,,2013-03-20 09:53:00,
2013-03-20 06:03:00,24.0,17.0,29.96,WSW,253,0.0,4.0,74,0.00,,,0.00,,2013-03-20 10:03:00,
2013-03-20 06:13:00,24.0,17.0,29.96,WSW,253,0.0,4.0,74,0.00,,,0.00,,2013-03-20 10:13:00,
2013-03-20 06:23:00,24.0,17.0,29.96,WNW,295,1.0,3.0,75,0.00,,,0.00,,2013-03-20 10:23:00,
2013-03-20 06:33:00,24.0,17.0,29.96,SSW,200,3.0,7.0,75,0.00,,,0.00,,2013-03-20 10:33:00,
2013-03-20 06:43:00,24.0,17.0,29.96,SSW,200,3.0,7.0,75,0.00,,,0.00,,2013-03-20 10:43:00,
2013-03-20 06:53:00,24.0,17.0,29.96,SSW,200,3.0,7.0,75,0.00,,,0.00,,2013-03-20 10:53:00,
2013-03-20 07:03:00,24.0,18.0,29.96,WSW,253,1.0,6.0,77,0.00,,,0.00,,2013-03-20 11:03:00,
2013-03-20 07:12:00,24.0,18.0,29.96,WSW,253,1.0,6.0,77,0.00,,,0.00,,2013-03-20 11:12:00,
2013-03-20 07:22:00,24.0,18.0,29.96,WSW,238,1.0,6.0,77,0.00,,,0.00,,2013-03-20 11:22:00,
2013-03-20 07:32:00,24.0,18.0,29.96,West,262,1.0,5.0,79,0.00,,,0.00,,2013-03-20 11:32:00,
2013-03-20 07:42:00,24.0,18.0,29.96,West,262,1.0,5.0,79,0.00,,,0.00,,2013-03-20 11:42:00,
2013-03-20 07:52:00,23.0,18.0,29.96,West,271,1.0,4.0,80,0.00,,,0.00,,2013-03-20 11:52:00,
2013-03-20 08:02:00,23.0,17.0,29.96,West,277,2.0,6.0,77,0.00,,,0.00,,2013-03-20 12:02:00,
2013-03-20 08:12:00,23.0,17.0,29.96,West,277,2.0,6.0,77,0.00,,,0.00,,2013-03-20 12:12:00,
2013-03-20 08:22:00,23.0,15.0,29.96,West,266,2.0,5.0,72,0.00,,,0.00,,2013-03-20 12:22:00,
2013-03-20 08:32:00,23.0,15.0,29.96,WNW,287,3.0,9.0,70,0.00,,,0.00,,2013-03-20 12:32:00,
2013-03-20 08:42:00,23.0,15.0,29.96,WNW,287,3.0,9.0,70,0.00,,,0.00,,2013-03-20 12:42:00,
2013-03-20 08:52:00,24.0,15.0,29.97,WNW,287,4.0,9.0,67,0.00,,,0.00,,2013-03-20 12:52:00,
2013-03-20 09:03:00,24.0,15.0,29.97,WSW,243,2.0,9.0,67,0.00,,,0.00,,2013-03-20 13:03:00,
2013-03-20 09:12:00,24.0,15.0,29.97,WSW,243,2.0,9.0,67,0.00,,,0.00,,2013-03-20 13:12:00,
2013-03-20 09:22:00,25.0,15.0,29.97,WNW,285,5.0,11.0,66,0.00,,,0.00,,2013-03-20 13:22:00,
2013-03-20 09:32:00,25.0,15.0,29.97,West,263,4.0,11.0,66,0.00,,,0.00,,2013-03-20 13:32:00,
2013-03-20 09:42:00,25.0,15.0,29.97,West,263,4.0,11.0,66,0.00,,,0.00,,2013-03-20 13:42:00,
2013-03-20 09:53:00,25.0,15.0,29.98,WNW,297,6.0,13.0,64,0.00,,,0.00,,2013-03-20 13:53:00,
2013-03-20 10:03:00,25.0,15.0,29.98,SW,218,5.0,9.0,64,0.00,,,0.00,,2013-03-20 14:03:00,
2013-03-20 10:12:00,25.0,15.0,29.98,SW,218,5.0,9.0,64,0.00,,,0.00,,2013-03-20 14:12:00,
2013-03-20 10:23:00,25.0,15.0,29.98,WNW,287,6.0,16.0,64,0.00,,,0.00,,2013-03-20 14:23:00,
2013-03-20 10:34:00,25.0,13.0,29.97,WNW,294,7.0,12.0,59,0.00,,,0.00,,2013-03-20 14:34:00,
2013-03-20 10:42:00,25.0,13.0,29.97,WNW,294,7.0,12.0,59,0.00,,,0.00,,2013-03-20 14:42:00,
2013-03-20 10:53:00,26.0,14.0,29.97,WNW,287,7.0,12.0,59,0.00,,,0.00,,2013-03-20 14:53:00,
2013-03-20 11:03:00,26.0,14.0,29.97,WNW,298,7.0,11.0,61,0.00,,,0.00,,2013-03-20 15:03:00,
2013-03-20 11:12:00,26.0,16.0,29.97,WNW,290,3.0,12.0,66,0.00,,,0.00,,2013-03-20 15:12:00,
2013-03-20 11:22:00,26.0,16.0,29.97,WNW,290,3.0,12.0,66,0.00,,,0.00,,2013-03-20 15:22:00,
2013-03-20 11:33:00,26.0,16.0,29.97,WNW,290,3.0,12.0,66,0.00,,,0.00,,2013-03-20 15:33:00,
2013-03-20 11:43:00,26.0,16.0,29.97,WNW,290,3.0,12.0,66,0.00,,,0.00,,2013-03-20 15:43:00,
2013-03-20 11:53:00,26.0,15.0,29.97,WNW,288,4.0,14.0,62,0.00,,,0.00,,2013-03-20 15:53:00,
2013-03-20 12:03:00,27.0,13.0,29.96,WNW,290,6.0,11.0,56,0.00,,,0.00,,2013-03-20 16:03:00,
2013-03-20 12:13:00,27.0,13.0,29.96,WNW,290,6.0,11.0,56,0.00,,,0.00,,2013-03-20 16:13:00,
2013-03-20 12:23:00,27.0,13.0,29.96,WNW,290,6.0,11.0,56,0.00,,,0.00,,2013-03-20 16:23:00,
2013-03-20 12:33:00,28.0,14.0,29.96,WNW,283,6.0,11.0,54,0.00,,,0.00,,2013-03-20 16:33:00,
2013-03-20 12:43:00,28.0,14.0,29.96,WNW,283,6.0,11.0,54,0.00,,,0.00,,2013-03-20 16:43:00,
2013-03-20 12:53:00,28.0,14.0,29.96,SW,225,3.0,11.0,56,0.00,,,0.00,,2013-03-20 16:53:00,
2013-03-20 13:03:00,28.0,14.0,29.95,WNW,290,5.0,12.0,54,0.00,,,0.00,,2013-03-20 17:03:00,
2013-03-20 13:12:00,28.0,14.0,29.95,WNW,290,5.0,12.0,54,0.00,,,0.00,,2013-03-20 17:12:00,
2013-03-20 13:22:00,29.0,15.0,29.95,WNW,298,6.0,13.0,55,0.00,,,0.00,,2013-03-20 17:22:00,
2013-03-20 13:32:00,28.0,14.0,29.95,SW,222,5.0,17.0,55,0.00,,,0.00,,2013-03-20 17:32:00,
2013-03-20 13:42:00,28.0,14.0,29.95,SW,222,5.0,17.0,55,0.00,,,0.00,,2013-03-20 17:42:00,
2013-03-20 13:53:00,28.0,13.0,29.95,WSW,239,5.0,14.0,52,0.00,,,0.00,,2013-03-20 17:53:00,
2013-03-20 14:02:00,28.0,13.0,29.95,West,281,7.0,16.0,52,0.00,,,0.00,,2013-03-20 18:02:00,
2013-03-20 14:12:00,28.0,13.0,29.95,West,281,7.0,16.0,52,0.00,,,0.00,,2013-03-20 18:12:00,
2013-03-20 14:22:00,28.0,14.0,29.95,WNW,288,7.0,17.0,56,0.00,,,0.00,,2013-03-20 18:22:00,
2013-03-20 14:33:00,28.0,16.0,29.95,WNW,294,5.0,13.0,59,0.00,,,0.00,,2013-03-20 18:33:00,
2013-03-20 14:43:00,28.0,16.0,29.95,WNW,294,5.0,13.0,59,0.00,,,0.00,,2013-03-20 18:43:00,
2013-03-20 14:53:00,28.0,12.0,29.94,West,267,4.0,13.0,51,0.00,,,0.00,,2013-03-20 18:53:00,
2013-03-20 15:02:00,28.0,13.0,29.94,West,273,6.0,15.0,53,0.00,,,0.00,,2013-03-20 19:02:00,
2013-03-20 15:12:00,28.0,13.0,29.94,West,273,6.0,15.0,53,0.00,,,0.00,,2013-03-20 19:12:00,
2013-03-20 15:22:00,28.0,15.0,29.94,WNW,287,6.0,12.0,58,0.00,,,0.00,,2013-03-20 19:22:00,
2013-03-20 15:32:00,27.0,13.0,29.93,West,276,6.0,16.0,55,0.00,,,0.00,,2013-03-20 19:32:00,
2013-03-20 15:42:00,27.0,13.0,29.93,West,276,6.0,16.0,55,0.00,,,0.00,,2013-03-20 19:42:00,
2013-03-20 15:53:00,27.0,14.0,29.93,WNW,300,7.0,15.0,58,0.00,,,0.00,,2013-03-20 19:53:00,
2013-03-20 16:02:00,27.0,12.0,29.93,West,276,7.0,14.0,52,0.00,,,0.00,,2013-03-20 20:02:00,
2013-03-20 16:13:00,27.0,12.0,29.93,West,276,7.0,14.0,52,0.00,,,0.00,,2013-03-20 20:13:00,
2013-03-20 16:22:00,27.0,12.0,29.93,West,276,7.0,14.0,52,0.00,,,0.00,,2013-03-20 20:22:00,
2013-03-20 16:32:00,27.0,13.0,29.93,West,259,3.0,14.0,54,0.00,,,0.00,,2013-03-20 20:32:00,
2013-03-20 16:42:00,27.0,13.0,29.93,West,259,3.0,14.0,54,0.00,,,0.00,,2013-03-20 20:42:00,
2013-03-20 16:53:00,27.0,13.0,29.93,WNW,298,7.0,15.0,54,0.00,,,0.00,,2013-03-20 20:53:00,
2013-03-20 17:02:00,26.0,14.0,29.93,WNW,283,9.0,16.0,59,0.00,,,0.00,,2013-03-20 21:02:00,
2013-03-20 17:12:00,26.0,14.0,29.93,WNW,283,9.0,16.0,59,0.00,,,0.00,,2013-03-20 21:12:00,
2013-03-20 17:22:00,26.0,14.0,29.94,West,278,9.0,15.0,60,0.00,,,0.00,,2013-03-20 21:22:00,
2013-03-20 17:33:00,25.0,13.0,29.94,WNW,287,7.0,14.0,60,0.00,,,0.00,,2013-03-20 21:33:00,
2013-03-20 17:42:00,25.0,13.0,29.94,WNW,287,7.0,14.0,60,0.00,,,0.00,,2013-03-20 21:42:00,
2013-03-20 17:53:00,26.0,11.0,29.94,WNW,291,7.0,16.0,53,0.00,,,0.00,,2013-03-20 21:53:00,
2013-03-20 18:03:00,25.0,13.0,29.94,WNW,295,7.0,14.0,60,0.00,,,0.00,,2013-03-20 22:03:00,
2013-03-20 18:13:00,25.0,13.0,29.94,WNW,295,7.0,14.0,60,0.00,,,0.00,,2013-03-20 22:13:00,
2013-03-20 18:23:00,25.0,13.0,29.95,WNW,288,9.0,14.0,61,0.00,,,0.00,,2013-03-20 22:23:00,
2013-03-20 18:33:00,24.0,13.0,29.95,WNW,295,8.0,13.0,61,0.00,,,0.00,,2013-03-20 22:33:00,
2013-03-20 18:42:00,24.0,13.0,29.95,WNW,295,8.0,13.0,61,0.00,,,0.00,,2013-03-20 22:42:00,
2013-03-20 18:53:00,24.0,12.0,29.96,NW,311,8.0,14.0,59,0.00,,,0.00,,2013-03-20 22:53:00,
2013-03-20 19:02:00,23.0,10.0,29.96,WNW,294,6.0,11.0,58,0.00,,,0.00,,2013-03-20 23:02:00,
2013-03-20 19:12:00,23.0,10.0,29.96,WNW,294,6.0,11.0,58,0.00,,,0.00,,2013-03-20 23:12:00,
2013-03-20 19:23:00,23.0,11.0,29.97,WNW,301,7.0,11.0,59,0.00,,,0.00,,2013-03-20 23:23:00,
2013-03-20 19:32:00,23.0,12.0,29.97,WNW,294,7.0,12.0,62,0.00,,,0.00,,2013-03-20 23:32:00,
2013-03-20 19:42:00,23.0,12.0,29.97,WNW,294,7.0,12.0,62,0.00,,,0.00,,2013-03-20 23:42:00,
2013-03-20 19:53:00,23.0,12.0,29.97,WNW,298,7.0,11.0,61,0.00,,,0.00,,2013-03-20 23:53:00,
2013-03-20 20:02:00,22.0,11.0,29.98,WNW,294,7.0,12.0,61,0.00,,,0.00,,2013-03-21 00:02:00,
2013-03-20 20:13:00,22.0,11.0,29.98,WNW,294,7.0,12.0,61,0.00,,,0.00,,2013-03-21 00:13:00,
2013-03-20 20:23:00,22.0,11.0,29.98,WNW,294,8.0,13.0,63,0.00,,,0.00,,2013-03-21 00:23:00,
2013-03-20 20:33:00,21.0,10.0,29.98,WNW,298,6.0,12.0,63,0.00,,,0.00,,2013-03-21 00:33:00,
2013-03-20 20:42:00,21.0,10.0,29.98,WNW,298,6.0,12.0,63,0.00,,,0.00,,2013-03-21 00:42:00,
2013-03-20 20:52:00,21.0,12.0,29.98,NW,314,7.0,13.0,67,0.00,,,0.00,,2013-03-21 00:52:00,
2013-03-20 21:02:00,20.0,11.0,29.98,WNW,295,3.0,9.0,66,0.00,,,0.00,,2013-03-21 01:02:00,
2013-03-20 21:12:00,20.0,11.0,29.98,WNW,295,3.0,9.0,66,0.00,,,0.00,,2013-03-21 01:12:00,
2013-03-20 21:22:00,20.0,11.0,29.98,WNW,290,4.0,8.0,69,0.00,,,0.00,,2013-03-21 01:22:00,
2013-03-20 21:33:00,20.0,11.0,29.98,WNW,290,4.0,8.0,69,0.00,,,0.00,,2013-03-21 01:33:00,
2013-03-20 21:42:00,20.0,11.0,29.98,WNW,290,4.0,8.0,69,0.00,,,0.00,,2013-03-21 01:42:00,
2013-03-20 21:52:00,20.0,11.0,29.98,WSW,257,4.0,10.0,69,0.00,,,0.00,,2013-03-21 01:52:00,
2013-03-20 22:02:00,19.0,11.0,29.98,WNW,285,3.0,9.0,70,0.00,,,0.00,,2013-03-21 02:02:00,
2013-03-20 22:13:00,19.0,11.0,29.98,WNW,285,3.0,9.0,70,0.00,,,0.00,,2013-03-21 02:13:00,
2013-03-20 22:22:00,19.0,12.0,29.98,WSW,257,3.0,9.0,73,0.00,,,0.00,,2013-03-21 02:22:00,
2013-03-20 22:33:00,19.0,12.0,29.98,West,267,3.0,8.0,74,0.00,,,0.00,,2013-03-21 02:33:00,
2013-03-20 22:42:00,19.0,12.0,29.98,West,267,3.0,8.0,74,0.00,,,0.00,,2013-03-21 02:42:00,
2013-03-20 22:52:00,19.0,12.0,29.98,West,267,3.0,8.0,74,0.00,,,0.00,,2013-03-21 02:52:00,
2013-03-20 23:02:00,18.0,11.0,29.98,WNW,285,3.0,8.0,75,0.00,,,0.00,,2013-03-21 03:02:00,
2013-03-20 23:12:00,18.0,11.0,29.98,WNW,285,3.0,8.0,75,0.00,,,0.00,,2013-03-21 03:12:00,
2013-03-20 23:22:00,18.0,11.0,29.98,WNW,301,4.0,9.0,74,0.00,,,0.00,,2013-03-21 03:22:00,
2013-03-20 23:33:00,18.0,11.0,29.98,West,274,4.0,7.0,74,0.00,,,0.00,,2013-03-21 03:33:00,
2013-03-20 23:43:00,18.0,11.0,29.98,West,274,4.0,7.0,74,0.00,,,0.00,,2013-03-21 03:43:00,
2013-03-20 23:53:00,18.0,12.0,29.98,WNW,291,3.0,7.0,76,0.00,,,0.00,,2013-03-21 03:53:00,